createdAt,value
2019-05-02T00:01:39.336Z,9.26
2019-05-02T00:04:12.397Z,9.26
2019-05-02T00:06:44.280Z,9.06
2019-05-02T00:09:14.534Z,8.87
2019-05-02T00:11:57.683Z,8.93
2019-05-02T00:14:17.450Z,8.96
2019-05-02T00:16:49.411Z,9.01
2019-05-02T00:19:19.473Z,9.08
2019-05-02T00:21:49.645Z,9.14
2019-05-02T00:24:19.769Z,9.20
2019-05-02T00:26:49.978Z,9.23
2019-05-02T00:29:23.738Z,9.24
2019-05-02T00:31:53.966Z,9.21
2019-05-02T00:34:24.555Z,9.23
2019-05-02T00:36:54.714Z,9.21
2019-05-02T00:39:24.836Z,9.21
2019-05-02T00:41:54.984Z,9.24
2019-05-02T00:44:25.129Z,9.26
2019-05-02T00:46:57.995Z,9.27
2019-05-02T00:49:30.829Z,9.27
2019-05-02T00:52:01.265Z,9.33
2019-05-02T00:54:31.859Z,9.36
2019-05-02T00:57:02.047Z,9.37
2019-05-02T00:59:32.156Z,9.40
2019-05-02T01:02:18.262Z,9.40
2019-05-02T01:04:48.833Z,9.40
2019-05-02T01:07:20.473Z,9.41
2019-05-02T01:09:50.818Z,9.43
2019-05-02T01:12:26.513Z,9.44
2019-05-02T01:14:52.849Z,9.44
2019-05-02T01:17:26.132Z,9.45
2019-05-02T01:19:54.832Z,9.44
2019-05-02T01:22:24.980Z,9.41
2019-05-02T01:24:55.111Z,9.44
2019-05-02T01:27:36.118Z,9.45
2019-05-02T01:30:22.513Z,9.36
2019-05-02T01:33:07.854Z,9.41
2019-05-02T01:36:06.443Z,9.48
2019-05-02T01:38:41.767Z,9.49
2019-05-02T01:41:11.966Z,9.51
2019-05-02T01:43:42.118Z,9.54
2019-05-02T01:46:12.236Z,9.56
2019-05-02T01:48:45.907Z,9.54
2019-05-02T01:51:14.330Z,9.56
2019-05-02T01:53:44.456Z,9.61
2019-05-02T01:56:14.562Z,9.64
2019-05-02T01:58:44.680Z,9.68
2019-05-02T02:01:16.082Z,9.70
2019-05-02T02:03:46.984Z,9.06
2019-05-02T02:06:17.270Z,9.77
2019-05-02T02:08:47.477Z,9.82
2019-05-02T02:11:17.600Z,9.85
2019-05-02T02:13:47.714Z,9.88
2019-05-02T02:16:17.831Z,9.88
2019-05-02T02:18:58.941Z,9.91
2019-05-02T02:21:57.559Z,9.93
2019-05-02T02:24:31.414Z,9.93
2019-05-02T02:27:01.585Z,9.93
2019-05-02T02:29:31.723Z,9.92
2019-05-02T02:32:01.852Z,9.91
2019-05-02T02:34:32.588Z,9.92
2019-05-02T02:37:05.558Z,9.94
2019-05-02T02:39:34.661Z,9.95
2019-05-02T02:42:04.931Z,9.98
2019-05-02T02:44:42.082Z,9.96
2019-05-02T02:47:18.823Z,9.96
2019-05-02T02:49:44.100Z,9.90
2019-05-02T02:52:14.275Z,9.81
2019-05-02T02:54:44.995Z,9.82
2019-05-02T02:57:26.050Z,9.81
2019-05-02T02:59:47.890Z,9.83
2019-05-02T03:02:18.001Z,9.87
2019-05-02T03:04:48.192Z,9.83
2019-05-02T03:07:25.915Z,9.82
2019-05-02T03:09:50.223Z,9.79
2019-05-02T03:12:41.455Z,9.77
2019-05-02T03:15:20.913Z,9.77
2019-05-02T03:17:47.289Z,9.77
2019-05-02T03:20:17.421Z,9.77
2019-05-02T03:22:47.518Z,9.80
2019-05-02T03:25:25.053Z,9.78
2019-05-02T03:27:50.938Z,9.76
2019-05-02T03:30:32.339Z,9.72
2019-05-02T03:33:06.426Z,9.71
2019-05-02T03:35:40.009Z,9.74
2019-05-02T03:37:56.554Z,9.74
2019-05-02T03:40:32.298Z,9.69
2019-05-02T03:42:58.910Z,9.70
2019-05-02T03:45:32.078Z,9.72
2019-05-02T03:48:01.842Z,9.72
2019-05-02T03:50:35.067Z,9.61
2019-05-02T03:53:03.807Z,9.60
2019-05-02T03:55:34.480Z,9.64
2019-05-02T03:58:13.369Z,9.62
2019-05-02T04:00:36.863Z,9.58
2019-05-02T04:03:06.988Z,9.59
2019-05-02T04:05:40.376Z,9.62
2019-05-02T04:08:20.081Z,9.61
2019-05-02T04:11:13.961Z,9.67
2019-05-02T04:13:44.346Z,9.67
2019-05-02T04:16:17.594Z,9.63
2019-05-02T04:18:55.667Z,9.64
2019-05-02T04:21:25.897Z,9.62
2019-05-02T04:24:06.672Z,9.56
2019-05-02T04:26:27.114Z,9.52
2019-05-02T04:28:57.757Z,9.46
2019-05-02T04:31:31.730Z,9.48
2019-05-02T04:33:59.990Z,9.36
2019-05-02T04:36:30.171Z,9.33
2019-05-02T04:39:05.888Z,9.27
2019-05-02T04:41:34.421Z,9.22
2019-05-02T04:44:04.118Z,9.18
2019-05-02T04:46:34.245Z,9.09
2019-05-02T04:49:04.409Z,9.19
2019-05-02T04:51:34.781Z,9.28
2019-05-02T04:54:04.994Z,9.28
2019-05-02T04:56:42.263Z,9.33
2019-05-02T04:59:16.541Z,9.27
2019-05-02T05:01:43.449Z,9.16
2019-05-02T05:04:10.634Z,9.16
2019-05-02T05:06:46.361Z,9.10
2019-05-02T05:09:15.011Z,9.13
2019-05-02T05:11:45.452Z,9.10
2019-05-02T05:14:17.991Z,8.99
2019-05-02T05:16:51.673Z,8.91
2019-05-02T05:19:23.002Z,8.89
2019-05-02T05:21:58.870Z,8.82
2019-05-02T05:24:53.202Z,8.71
2019-05-02T05:27:23.370Z,8.71
2019-05-02T05:29:58.609Z,8.80
2019-05-02T05:32:28.185Z,8.85
2019-05-02T05:35:03.511Z,8.91
2019-05-02T05:37:30.363Z,8.86
2019-05-02T05:40:00.498Z,8.85
2019-05-02T05:42:33.362Z,8.82
2019-05-02T05:45:03.925Z,8.81
2019-05-02T05:47:34.433Z,8.68
2019-05-02T05:50:04.894Z,8.60
2019-05-02T05:52:38.717Z,8.63
2019-05-02T05:55:07.871Z,8.67
2019-05-02T05:57:38.546Z,8.71
2019-05-02T06:00:15.973Z,8.66
2019-05-02T06:02:52.752Z,8.53
2019-05-02T06:05:13.197Z,8.60
2019-05-02T06:07:44.969Z,8.45
2019-05-02T06:10:15.278Z,8.45
2019-05-02T06:12:45.707Z,8.55
2019-05-02T06:15:15.864Z,8.49
2019-05-02T06:17:45.966Z,8.55
2019-05-02T06:20:16.194Z,8.65
2019-05-02T06:22:46.322Z,8.69
2019-05-02T06:25:17.011Z,8.65
2019-05-02T06:27:47.163Z,8.59
2019-05-02T06:30:17.693Z,8.63
2019-05-02T06:32:50.072Z,8.65
2019-05-02T06:35:21.090Z,8.66
2019-05-02T06:37:52.019Z,8.69
2019-05-02T06:40:22.166Z,8.64
2019-05-02T06:42:53.258Z,8.74
2019-05-02T06:45:23.593Z,8.77
2019-05-02T06:47:56.005Z,8.75
2019-05-02T06:50:26.128Z,8.91
2019-05-02T06:52:56.286Z,8.93
2019-05-02T06:55:28.202Z,9.08
2019-05-02T06:58:02.835Z,9.09
2019-05-02T07:00:38.475Z,9.04
2019-05-02T07:03:05.049Z,9.13
2019-05-02T07:05:34.834Z,9.12
2019-05-02T07:08:06.611Z,8.96
2019-05-02T07:10:44.394Z,8.77
2019-05-02T07:13:11.066Z,8.78
2019-05-02T07:16:10.343Z,8.74
2019-05-02T07:18:47.659Z,8.62
2019-05-02T07:21:17.303Z,8.67
2019-05-02T07:23:48.676Z,8.69
2019-05-02T07:26:21.590Z,8.66
2019-05-02T07:28:51.105Z,8.92
2019-05-02T07:31:21.277Z,9.10
2019-05-02T07:33:52.511Z,9.16
2019-05-02T07:36:22.626Z,9.36
2019-05-02T07:38:57.653Z,9.42
2019-05-02T07:41:28.913Z,9.76
2019-05-02T07:43:57.515Z,9.99
2019-05-02T07:46:27.817Z,10.11
2019-05-02T07:48:57.909Z,9.96
2019-05-02T07:51:28.182Z,10.05
2019-05-02T07:53:58.330Z,10.02
2019-05-02T07:56:28.471Z,10.19
2019-05-02T07:58:58.624Z,10.25
2019-05-02T08:01:28.813Z,10.20
2019-05-02T08:04:04.170Z,10.11
2019-05-02T08:06:35.382Z,10.20
2019-05-02T08:09:07.158Z,10.40
2019-05-02T08:11:38.531Z,10.44
2019-05-02T08:14:08.882Z,10.59
2019-05-02T08:16:39.033Z,10.72
2019-05-02T08:19:09.220Z,10.66
2019-05-02T08:21:39.334Z,10.58
2019-05-02T08:24:09.493Z,10.48
2019-05-02T08:27:07.867Z,10.50
2019-05-02T08:29:38.231Z,10.43
2019-05-02T08:32:08.388Z,10.52
2019-05-02T08:34:38.546Z,10.50
2019-05-02T08:37:08.655Z,10.67
2019-05-02T08:39:38.833Z,10.97
2019-05-02T08:42:10.022Z,11.22
2019-05-02T08:44:50.826Z,11.29
2019-05-02T08:47:18.780Z,11.03
2019-05-02T08:49:43.837Z,10.40
2019-05-02T08:52:14.000Z,10.30
2019-05-02T08:54:44.186Z,10.45
2019-05-02T08:57:14.293Z,10.58
2019-05-02T08:59:45.775Z,10.78
2019-05-02T09:02:15.959Z,10.89
2019-05-02T09:04:57.933Z,10.86
2019-05-02T09:07:17.956Z,10.75
2019-05-02T09:09:48.206Z,11.04
2019-05-02T09:12:20.053Z,11.20
2019-05-02T09:14:52.200Z,11.23
2019-05-02T09:17:35.425Z,11.13
2019-05-02T09:20:02.419Z,11.31
2019-05-02T09:22:26.270Z,11.42
2019-05-02T09:24:56.418Z,11.46
2019-05-02T09:27:26.535Z,11.35
2019-05-02T09:29:56.822Z,11.10
2019-05-02T09:32:26.978Z,11.17
2019-05-02T09:35:02.164Z,11.57
2019-05-02T09:37:31.974Z,11.52
2019-05-02T09:40:02.288Z,11.37
2019-05-02T09:42:32.638Z,10.98
2019-05-02T09:45:03.196Z,10.84
2019-05-02T09:47:46.942Z,10.73
2019-05-02T09:50:12.798Z,10.82
2019-05-02T09:52:44.224Z,11.15
2019-05-02T09:55:16.793Z,11.46
2019-05-02T09:57:47.276Z,11.43
2019-05-02T10:00:36.494Z,12.18
2019-05-02T10:03:07.493Z,12.32
2019-05-02T10:05:37.636Z,12.42
2019-05-02T10:08:11.024Z,12.82
2019-05-02T10:10:44.250Z,13.04
2019-05-02T10:13:12.187Z,12.55
2019-05-02T10:15:42.947Z,12.30
2019-05-02T10:18:14.719Z,12.28
2019-05-02T10:20:45.072Z,12.05
2019-05-02T10:23:19.550Z,11.99
2019-05-02T10:25:47.142Z,11.54
2019-05-02T10:28:18.382Z,11.34
2019-05-02T10:30:52.562Z,11.33
2019-05-02T10:33:22.527Z,11.45
2019-05-02T10:35:52.854Z,11.56
2019-05-02T10:38:23.055Z,11.77
2019-05-02T10:40:59.342Z,12.15
2019-05-02T10:43:25.982Z,12.29
2019-05-02T10:46:01.901Z,12.41
2019-05-02T10:48:33.767Z,12.22
2019-05-02T10:51:25.625Z,12.07
2019-05-02T10:53:56.395Z,11.96
2019-05-02T10:56:25.278Z,12.45
2019-05-02T10:58:55.415Z,12.68
2019-05-02T11:01:27.227Z,13.05
2019-05-02T11:03:58.848Z,13.29
2019-05-02T11:06:29.071Z,13.73
2019-05-02T11:08:59.225Z,13.86
2019-05-02T11:11:29.362Z,13.53
2019-05-02T11:14:15.164Z,12.99
2019-05-02T11:17:08.861Z,12.91
2019-05-02T11:19:43.460Z,13.09
2019-05-02T11:22:13.582Z,13.20
2019-05-02T11:24:43.712Z,13.45
2019-05-02T11:27:13.825Z,13.85
2019-05-02T11:29:43.994Z,13.71
2019-05-02T11:32:14.236Z,13.70
2019-05-02T11:34:44.364Z,13.67
2019-05-02T11:37:14.507Z,13.63
2019-05-02T11:39:50.700Z,13.80
2019-05-02T11:42:17.659Z,13.52
2019-05-02T11:44:48.326Z,13.64
2019-05-02T11:47:24.827Z,13.74
2019-05-02T11:49:53.877Z,13.79
2019-05-02T11:52:22.710Z,13.57
2019-05-02T11:54:53.915Z,13.54
2019-05-02T11:57:28.494Z,13.75
2019-05-02T11:59:59.352Z,14.03
2019-05-02T12:02:58.129Z,14.18
2019-05-02T12:05:35.820Z,13.79
2019-05-02T12:08:07.837Z,13.61
2019-05-02T12:10:37.770Z,13.82
2019-05-02T12:13:11.957Z,13.78
2019-05-02T12:15:42.162Z,13.49
2019-05-02T12:18:12.150Z,13.60
2019-05-02T12:20:42.735Z,13.41
2019-05-02T12:23:13.183Z,13.47
2019-05-02T12:25:43.277Z,13.07
2019-05-02T12:28:16.477Z,12.93
2019-05-02T12:30:46.940Z,13.26
2019-05-02T12:33:18.015Z,13.36
2019-05-02T12:35:48.183Z,13.54
2019-05-02T12:38:18.275Z,13.67
2019-05-02T12:40:48.452Z,13.73
2019-05-02T12:43:20.337Z,13.67
2019-05-02T12:45:52.228Z,13.48
2019-05-02T12:48:22.329Z,13.31
2019-05-02T12:50:52.923Z,13.48
2019-05-02T12:53:24.440Z,13.55
2019-05-02T12:55:55.948Z,13.64
2019-05-02T12:58:27.787Z,13.89
2019-05-02T13:00:58.190Z,13.90
2019-05-02T13:03:43.627Z,13.77
2019-05-02T13:06:14.050Z,13.63
2019-05-02T13:08:52.481Z,13.24
2019-05-02T13:11:52.290Z,13.18
2019-05-02T13:14:27.937Z,13.45
2019-05-02T13:17:01.382Z,13.00
2019-05-02T13:19:38.127Z,13.06
2019-05-02T13:22:21.787Z,13.55
2019-05-02T13:24:58.108Z,13.14
2019-05-02T13:27:32.134Z,13.03
2019-05-02T13:30:03.389Z,12.88
2019-05-02T13:32:39.316Z,12.80
2019-05-02T13:35:27.062Z,12.52
2019-05-02T13:38:02.717Z,12.45
2019-05-02T13:40:41.810Z,12.44
2019-05-02T13:43:13.462Z,12.05
2019-05-02T13:45:50.259Z,12.61
2019-05-02T13:48:21.790Z,12.27
2019-05-02T13:50:54.977Z,11.95
2019-05-02T13:53:26.306Z,11.74
2019-05-02T13:56:15.446Z,11.38
2019-05-02T13:58:45.595Z,11.43
2019-05-02T14:01:16.217Z,11.24
2019-05-02T14:03:46.709Z,10.86
2019-05-02T14:06:16.922Z,10.79
2019-05-02T14:08:53.375Z,10.64
2019-05-02T14:11:47.829Z,10.45
2019-05-02T14:14:18.007Z,10.54
2019-05-02T14:16:48.165Z,10.58
2019-05-02T14:19:18.315Z,10.73
2019-05-02T14:21:48.480Z,10.74
2019-05-02T14:24:22.926Z,10.76
2019-05-02T14:26:54.309Z,10.53
2019-05-02T14:29:24.452Z,10.06
2019-05-02T14:31:55.858Z,10.15
2019-05-02T14:35:02.418Z,9.95
2019-05-02T14:37:32.262Z,9.84
2019-05-02T14:40:23.690Z,9.80
2019-05-02T14:42:57.729Z,9.74
2019-05-02T14:45:30.781Z,9.81
2019-05-02T14:48:04.046Z,9.81
2019-05-02T14:50:29.395Z,9.81
2019-05-02T14:53:04.243Z,9.76
2019-05-02T14:55:37.435Z,9.77
2019-05-02T14:58:07.689Z,9.83
2019-05-02T15:00:45.773Z,9.85
2019-05-02T15:03:13.207Z,9.95
2019-05-02T15:05:43.328Z,10.08
2019-05-02T15:08:13.480Z,10.19
2019-05-02T15:10:52.374Z,10.29
2019-05-02T15:13:15.469Z,10.51
2019-05-02T15:15:45.603Z,10.54
2019-05-02T15:18:17.448Z,10.63
2019-05-02T15:20:47.595Z,10.56
2019-05-02T15:23:19.822Z,10.60
2019-05-02T15:25:52.502Z,10.51
2019-05-02T15:28:22.863Z,10.47
2019-05-02T15:31:12.362Z,10.53
2019-05-02T15:33:49.251Z,10.41
2019-05-02T15:36:19.372Z,10.42
2019-05-02T15:38:49.528Z,10.61
2019-05-02T15:41:19.649Z,10.60
2019-05-02T15:43:49.797Z,10.77
2019-05-02T15:46:26.523Z,10.89
2019-05-02T15:48:52.092Z,10.83
2019-05-02T15:51:23.084Z,10.77
2019-05-02T15:54:08.237Z,10.39
2019-05-02T15:56:37.846Z,10.20
2019-05-02T15:59:11.012Z,9.79
2019-05-02T16:01:52.513Z,9.60
2019-05-02T16:04:31.989Z,8.61
2019-05-02T16:07:06.994Z,9.50
2019-05-02T16:09:34.366Z,9.29
2019-05-02T16:12:04.904Z,9.29
2019-05-02T16:14:36.142Z,9.13
2019-05-02T16:17:06.433Z,9.10
2019-05-02T16:19:42.594Z,9.05
2019-05-02T16:22:15.959Z,8.93
2019-05-02T16:24:48.825Z,8.76
2019-05-02T16:27:21.981Z,8.70
2019-05-02T16:29:51.013Z,8.40
2019-05-02T16:32:30.936Z,8.15
2019-05-02T16:35:12.332Z,8.17
2019-05-02T16:37:35.769Z,7.84
2019-05-02T16:40:07.883Z,7.72
2019-05-02T16:42:38.238Z,7.43
2019-05-02T16:45:09.349Z,7.12
2019-05-02T16:47:39.832Z,7.15
2019-05-02T16:50:12.224Z,6.75
2019-05-02T16:52:43.633Z,6.64
2019-05-02T16:55:20.790Z,6.26
2019-05-02T16:57:49.439Z,6.29
2019-05-02T17:00:22.692Z,6.19
2019-05-02T17:02:53.156Z,6.10
2019-05-02T17:05:24.630Z,6.10
2019-05-02T17:08:19.839Z,5.99
2019-05-02T17:10:56.711Z,6.03
2019-05-02T17:13:27.419Z,6.25
2019-05-02T17:15:59.141Z,6.18
2019-05-02T17:18:29.283Z,6.34
2019-05-02T17:20:59.441Z,6.34
2019-05-02T17:23:29.726Z,6.37
2019-05-02T17:26:01.619Z,6.23
2019-05-02T17:28:32.089Z,6.05
2019-05-02T17:31:02.331Z,5.95
2019-05-02T17:33:32.472Z,5.88
2019-05-02T17:36:02.743Z,5.79
2019-05-02T17:38:33.242Z,5.66
2019-05-02T17:41:07.669Z,5.52
2019-05-02T17:43:37.409Z,5.58
2019-05-02T17:46:12.831Z,5.47
2019-05-02T17:48:42.921Z,5.13
2019-05-02T17:51:28.367Z,5.30
2019-05-02T17:53:56.025Z,5.17
2019-05-02T17:56:26.288Z,5.01
2019-05-02T17:58:58.339Z,5.02
2019-05-02T18:01:38.610Z,5.11
2019-05-02T18:04:12.542Z,5.06
2019-05-02T18:06:41.701Z,5.04
2019-05-02T18:09:12.437Z,5.18
2019-05-02T18:11:42.597Z,4.94
2019-05-02T18:14:19.747Z,4.89
2019-05-02T18:16:47.035Z,4.82
2019-05-02T18:19:23.599Z,4.46
2019-05-02T18:22:03.569Z,4.42
2019-05-02T18:24:32.768Z,4.12
2019-05-02T18:27:03.946Z,4.23
2019-05-02T18:29:42.703Z,4.46
2019-05-02T18:32:12.945Z,4.53
2019-05-02T18:34:44.735Z,3.71
2019-05-02T18:37:14.989Z,4.69
2019-05-02T18:39:50.911Z,4.57
2019-05-02T18:42:22.100Z,4.54
2019-05-02T18:44:52.996Z,4.34
2019-05-02T18:47:24.764Z,4.31
2019-05-02T18:50:00.907Z,4.24
2019-05-02T18:52:37.276Z,4.11
2019-05-02T18:54:58.624Z,4.19
2019-05-02T18:57:29.625Z,4.04
2019-05-02T19:00:02.008Z,4.13
2019-05-02T19:02:35.441Z,4.19
2019-05-02T19:05:06.089Z,4.21
2019-05-02T19:07:36.520Z,3.91
2019-05-02T19:10:07.453Z,3.82
2019-05-02T19:12:38.363Z,3.87
2019-05-02T19:15:08.611Z,3.83
2019-05-02T19:17:43.244Z,3.92
2019-05-02T19:20:33.282Z,3.84
2019-05-02T19:23:03.526Z,3.95
2019-05-02T19:25:33.802Z,3.93
2019-05-02T19:28:12.108Z,3.89
2019-05-02T19:30:43.577Z,3.83
2019-05-02T19:33:13.845Z,3.81
2019-05-02T19:35:46.876Z,3.88
2019-05-02T19:38:17.174Z,3.19
2019-05-02T19:40:49.708Z,3.56
2019-05-02T19:43:19.863Z,3.41
2019-05-02T19:45:53.819Z,3.21
2019-05-02T19:48:22.693Z,3.17
2019-05-02T19:50:52.966Z,3.10
2019-05-02T19:53:23.244Z,3.09
2019-05-02T19:55:57.178Z,3.07
2019-05-02T19:58:26.708Z,3.19
2019-05-02T20:00:57.130Z,3.14
2019-05-02T20:03:27.427Z,3.02
2019-05-02T20:06:02.413Z,3.01
2019-05-02T20:08:29.762Z,2.93
2019-05-02T20:11:02.246Z,2.83
2019-05-02T20:13:32.855Z,2.88
2019-05-02T20:16:12.675Z,2.63
2019-05-02T20:18:47.188Z,2.70
2019-05-02T20:21:29.066Z,2.73
2019-05-02T20:24:01.481Z,2.59
2019-05-02T20:26:32.502Z,2.64
2019-05-02T20:29:02.986Z,2.66
2019-05-02T20:31:33.458Z,2.64
2019-05-02T20:34:04.128Z,2.58
2019-05-02T20:36:34.482Z,2.69
2019-05-02T20:39:08.650Z,2.58
2019-05-02T20:41:38.989Z,2.44
2019-05-02T20:44:09.124Z,2.54
2019-05-02T20:46:39.254Z,2.62
2019-05-02T20:49:09.381Z,2.58
2019-05-02T20:51:42.384Z,2.61
2019-05-02T20:54:12.867Z,2.77
2019-05-02T20:56:42.998Z,2.89
2019-05-02T20:59:13.198Z,3.00
2019-05-02T21:01:43.342Z,3.14
2019-05-02T21:04:13.494Z,3.19
2019-05-02T21:07:05.435Z,3.22
2019-05-02T21:09:48.279Z,3.26
2019-05-02T21:12:18.588Z,3.34
2019-05-02T21:14:49.840Z,3.39
2019-05-02T21:17:21.986Z,3.45
2019-05-02T21:19:51.824Z,3.43
2019-05-02T21:22:25.643Z,3.40
2019-05-02T21:24:58.038Z,3.39
2019-05-02T21:27:28.793Z,3.43
2019-05-02T21:29:59.264Z,3.33
2019-05-02T21:32:29.528Z,3.28
2019-05-02T21:34:59.734Z,3.19
2019-05-02T21:37:31.834Z,3.16
2019-05-02T21:40:02.755Z,3.10
2019-05-02T21:42:33.077Z,3.06
2019-05-02T21:45:03.631Z,2.95
2019-05-02T21:47:33.823Z,2.98
2019-05-02T21:50:12.469Z,2.93
2019-05-02T21:52:47.243Z,2.90
2019-05-02T21:55:32.360Z,2.92
2019-05-02T21:58:02.767Z,2.91
2019-05-02T22:00:54.298Z,2.89
2019-05-02T22:03:26.131Z,2.89
2019-05-02T22:05:57.467Z,2.84
2019-05-02T22:08:27.582Z,2.85
2019-05-02T22:10:57.966Z,2.87
2019-05-02T22:13:28.136Z,2.87
2019-05-02T22:15:58.475Z,2.88
2019-05-02T22:18:28.596Z,2.87
2019-05-02T22:20:58.724Z,2.88
2019-05-02T22:23:28.847Z,2.86
2019-05-02T22:25:58.971Z,2.83
2019-05-02T22:28:29.087Z,2.82
2019-05-02T22:30:59.257Z,2.80
2019-05-02T22:33:29.384Z,2.82
2019-05-02T22:36:01.786Z,2.80
2019-05-02T22:38:45.750Z,2.78
2019-05-02T22:41:15.893Z,2.75
2019-05-02T22:43:46.030Z,2.70
2019-05-02T22:46:35.129Z,2.66
2019-05-02T22:49:06.800Z,2.67
2019-05-02T22:51:36.917Z,2.68
2019-05-02T22:54:07.040Z,2.64
2019-05-02T22:56:37.265Z,2.64
2019-05-02T22:59:08.484Z,2.59
2019-05-02T23:01:38.630Z,2.58
2019-05-02T23:04:08.769Z,2.57
2019-05-02T23:06:39.049Z,2.57
2019-05-02T23:09:09.302Z,2.59
2019-05-02T23:11:39.592Z,2.55
2019-05-02T23:14:09.795Z,2.55
2019-05-02T23:16:42.325Z,2.52
2019-05-02T23:19:12.828Z,2.55
2019-05-02T23:21:42.971Z,2.55
2019-05-02T23:24:23.748Z,2.53
2019-05-02T23:27:28.401Z,2.59
2019-05-02T23:29:58.528Z,2.59
2019-05-02T23:32:29.018Z,2.61
2019-05-02T23:34:59.145Z,2.63
2019-05-02T23:37:29.276Z,2.67
2019-05-02T23:39:59.457Z,2.69
2019-05-02T23:42:29.602Z,2.69
2019-05-02T23:44:59.708Z,2.70
2019-05-02T23:47:30.023Z,2.73
2019-05-02T23:50:00.125Z,2.77
2019-05-02T23:52:31.576Z,2.77
2019-05-02T23:55:03.022Z,2.83
2019-05-02T23:57:33.362Z,2.85
